sensor_id;sensor_type;location;lat;lon;timestamp;pressure;altitude;pressure_sealevel;temperature;humidity
36354;BME280;22383;51.114;13.666;2023-05-31T00:00:34;68522.75;;;11.99;100.00
36354;BME280;22383;51.114;13.666;2023-05-31T00:03:02;68509.84;;;11.90;100.00
36354;BME280;22383;51.114;13.666;2023-05-31T00:05:30;68501.16;;;11.87;100.00
36354;BME280;22383;51.114;13.666;2023-05-31T00:07:57;68503.97;;;11.82;100.00
36354;BME280;22383;51.114;13.666;2023-05-31T00:10:25;68494.16;;;11.78;100.00
36354;BME280;22383;51.114;13.666;2023-05-31T00:12:52;68489.97;;;11.72;100.00
36354;BME280;22383;51.114;13.666;2023-05-31T00:15:20;68482.97;;;11.70;100.00
36354;BME280;22383;51.114;13.666;2023-05-31T00:17:47;68476.38;;;11.60;100.00
36354;BME280;22383;51.114;13.666;2023-05-31T00:20:17;68460.47;;;11.45;100.00
36354;BME280;22383;51.114;13.666;2023-05-31T00:22:45;68452.53;;;11.38;100.00
36354;BME280;22383;51.114;13.666;2023-05-31T00:25:12;68421.50;;;11.34;100.00
36354;BME280;22383;51.114;13.666;2023-05-31T00:27:40;68440.81;;;11.30;100.00
36354;BME280;22383;51.114;13.666;2023-05-31T00:30:08;68442.31;;;11.29;100.00
36354;BME280;22383;51.114;13.666;2023-05-31T00:32:36;68439.50;;;11.26;100.00
36354;BME280;22383;51.114;13.666;2023-05-31T00:35:04;68424.16;;;11.12;100.00
36354;BME280;22383;51.114;13.666;2023-05-31T00:37:31;68422.09;;;11.13;100.00
36354;BME280;22383;51.114;13.666;2023-05-31T00:40:04;68418.69;;;11.10;100.00
36354;BME280;22383;51.114;13.666;2023-05-31T00:42:33;68422.66;;;11.13;100.00
36354;BME280;22383;51.114;13.666;2023-05-31T00:45:00;68419.44;;;11.13;100.00
36354;BME280;22383;51.114;13.666;2023-05-31T00:47:28;68422.66;;;11.13;100.00
36354;BME280;22383;51.114;13.666;2023-05-31T00:49:58;68432.09;;;11.20;100.00
36354;BME280;22383;51.114;13.666;2023-05-31T00:52:27;68420.19;;;11.09;100.00
36354;BME280;22383;51.114;13.666;2023-05-31T00:54:56;68407.34;;;11.00;100.00
36354;BME280;22383;51.114;13.666;2023-05-31T00:57:23;68402.25;;;10.95;100.00
36354;BME280;22383;51.114;13.666;2023-05-31T00:59:51;68391.28;;;10.83;100.00
36354;BME280;22383;51.114;13.666;2023-05-31T01:02:20;68382.78;;;10.75;100.00
36354;BME280;22383;51.114;13.666;2023-05-31T01:04:49;68378.59;;;10.69;100.00
36354;BME280;22383;51.114;13.666;2023-05-31T01:07:16;68368.78;;;10.65;100.00
36354;BME280;22383;51.114;13.666;2023-05-31T01:09:44;68373.69;;;10.67;100.00
36354;BME280;22383;51.114;13.666;2023-05-31T01:12:19;68373.88;;;10.69;100.00
36354;BME280;22383;51.114;13.666;2023-05-31T01:15:16;68375.03;;;10.70;100.00
36354;BME280;22383;51.114;13.666;2023-05-31T01:20:39;68369.91;;;10.66;100.00
36354;BME280;22383;51.114;13.666;2023-05-31T01:29:12;68361.41;;;10.58;100.00
36354;BME280;22383;51.114;13.666;2023-05-31T01:31:41;68356.88;;;10.54;100.00
36354;BME280;22383;51.114;13.666;2023-05-31T01:34:10;68356.50;;;10.49;100.00
36354;BME280;22383;51.114;13.666;2023-05-31T01:36:39;68350.06;;;10.48;100.00
36354;BME280;22383;51.114;13.666;2023-05-31T01:39:07;68346.09;;;10.44;100.00
36354;BME280;22383;51.114;13.666;2023-05-31T01:41:39;68331.00;;;10.33;100.00
36354;BME280;22383;51.114;13.666;2023-05-31T01:44:09;68332.50;;;10.32;100.00
36354;BME280;22383;51.114;13.666;2023-05-31T01:46:39;68335.69;;;10.32;100.00
36354;BME280;22383;51.114;13.666;2023-05-31T01:49:09;68329.06;;;10.29;100.00
36354;BME280;22383;51.114;13.666;2023-05-31T01:51:37;68333.97;;;10.31;100.00
36354;BME280;22383;51.114;13.666;2023-05-31T01:54:07;68332.09;;;10.27;100.00
36354;BME280;22383;51.114;13.666;2023-05-31T01:56:37;68322.84;;;10.23;100.00
36354;BME280;22383;51.114;13.666;2023-05-31T01:59:07;68314.16;;;10.13;100.00
36354;BME280;22383;51.114;13.666;2023-05-31T02:01:36;68311.88;;;10.11;100.00
36354;BME280;22383;51.114;13.666;2023-05-31T02:04:04;68310.38;;;10.12;100.00
36354;BME280;22383;51.114;13.666;2023-05-31T02:06:36;68312.44;;;10.11;100.00
36354;BME280;22383;51.114;13.666;2023-05-31T02:09:08;68308.09;;;10.10;100.00
36354;BME280;22383;51.114;13.666;2023-05-31T02:11:35;68303.00;;;10.05;100.00
36354;BME280;22383;51.114;13.666;2023-05-31T02:14:03;68283.56;;;9.92;100.00
36354;BME280;22383;51.114;13.666;2023-05-31T02:16:30;68242.22;;;9.91;100.00
36354;BME280;22383;51.114;13.666;2023-05-31T02:18:58;68290.34;;;9.91;100.00
36354;BME280;22383;51.114;13.666;2023-05-31T02:21:26;68287.50;;;9.89;100.00
36354;BME280;22383;51.114;13.666;2023-05-31T02:23:54;68280.16;;;9.82;100.00
36354;BME280;22383;51.114;13.666;2023-05-31T02:26:22;68276.38;;;9.81;100.00
36354;BME280;22383;51.114;13.666;2023-05-31T02:28:51;68270.72;;;9.76;100.00
36354;BME280;22383;51.114;13.666;2023-05-31T02:31:18;68268.25;;;9.71;100.00
36354;BME280;22383;51.114;13.666;2023-05-31T02:33:47;68264.84;;;9.68;100.00
36354;BME280;22383;51.114;13.666;2023-05-31T02:36:14;68257.50;;;9.61;100.00
36354;BME280;22383;51.114;13.666;2023-05-31T02:38:44;68238.41;;;9.46;100.00
36354;BME280;22383;51.114;13.666;2023-05-31T02:41:12;68245.97;;;9.49;100.00
36354;BME280;22383;51.114;13.666;2023-05-31T02:43:41;68239.53;;;9.48;100.00
36354;BME280;22383;51.114;13.666;2023-05-31T02:46:09;68236.72;;;9.45;100.00
36354;BME280;22383;51.114;13.666;2023-05-31T02:48:36;68231.63;;;9.40;100.00
36354;BME280;22383;51.114;13.666;2023-05-31T02:51:04;68232.00;;;9.38;100.00
36354;BME280;22383;51.114;13.666;2023-05-31T02:53:52;68219.72;;;9.30;100.00
36354;BME280;22383;51.114;13.666;2023-05-31T02:56:23;68205.19;;;9.19;100.00
36354;BME280;22383;51.114;13.666;2023-05-31T02:59:00;68197.84;;;9.12;100.00
36354;BME280;22383;51.114;13.666;2023-05-31T03:01:39;68147.09;;;9.04;100.00
36354;BME280;22383;51.114;13.666;2023-05-31T03:04:17;68179.13;;;8.95;100.00
36354;BME280;22383;51.114;13.666;2023-05-31T03:06:46;68177.81;;;8.92;100.00
36354;BME280;22383;51.114;13.666;2023-05-31T03:09:15;68177.63;;;8.89;100.00
36354;BME280;22383;51.114;13.666;2023-05-31T03:11:45;68174.22;;;8.86;100.00
36354;BME280;22383;51.114;13.666;2023-05-31T03:14:13;68164.06;;;8.84;100.00
36354;BME280;22383;51.114;13.666;2023-05-31T03:16:45;68174.03;;;8.83;100.00
36354;BME280;22383;51.114;13.666;2023-05-31T03:19:13;68170.06;;;8.80;100.00
36354;BME280;22383;51.114;13.666;2023-05-31T03:21:43;68161.97;;;8.77;100.00
36354;BME280;22383;51.114;13.666;2023-05-31T03:24:11;68114.28;;;8.75;100.00
36354;BME280;22383;51.114;13.666;2023-05-31T03:26:39;68156.50;;;8.75;100.00
36354;BME280;22383;51.114;13.666;2023-05-31T03:29:07;68159.31;;;8.77;100.00
36354;BME280;22383;51.114;13.666;2023-05-31T03:31:35;68114.88;;;8.75;100.00
36354;BME280;22383;51.114;13.666;2023-05-31T03:34:02;68167.25;;;8.77;100.00
36354;BME280;22383;51.114;13.666;2023-05-31T03:36:30;68166.50;;;8.81;100.00
36354;BME280;22383;51.114;13.666;2023-05-31T03:39:02;68176.50;;;8.88;100.00
36354;BME280;22383;51.114;13.666;2023-05-31T03:41:31;68188.38;;;8.99;100.00
36354;BME280;22383;51.114;13.666;2023-05-31T03:43:59;68196.31;;;9.06;100.00
36354;BME280;22383;51.114;13.666;2023-05-31T03:46:26;68200.66;;;9.15;100.00
36354;BME280;22383;51.114;13.666;2023-05-31T03:48:54;68217.25;;;9.25;100.00
36354;BME280;22383;51.114;13.666;2023-05-31T03:51:24;68225.78;;;9.33;100.00
36354;BME280;22383;51.114;13.666;2023-05-31T03:53:52;68235.19;;;9.39;100.00
36354;BME280;22383;51.114;13.666;2023-05-31T03:56:19;68233.13;;;9.39;100.00
36354;BME280;22383;51.114;13.666;2023-05-31T03:58:48;68231.63;;;9.40;100.00
36354;BME280;22383;51.114;13.666;2023-05-31T04:01:16;68245.97;;;9.49;100.00
36354;BME280;22383;51.114;13.666;2023-05-31T04:03:45;68243.88;;;9.49;100.00
36354;BME280;22383;51.114;13.666;2023-05-31T04:06:13;68237.09;;;9.43;100.00
36354;BME280;22383;51.114;13.666;2023-05-31T04:08:41;68237.66;;;9.43;100.00
36354;BME280;22383;51.114;13.666;2023-05-31T04:11:09;68235.41;;;9.41;100.00
36354;BME280;22383;51.114;13.666;2023-05-31T04:13:36;68246.53;;;9.49;100.00
36354;BME280;22383;51.114;13.666;2023-05-31T04:16:05;68254.84;;;9.61;100.00
36354;BME280;22383;51.114;13.666;2023-05-31T04:18:32;68254.28;;;9.61;100.00
36354;BME280;22383;51.114;13.666;2023-05-31T04:20:59;68254.84;;;9.61;100.00
36354;BME280;22383;51.114;13.666;2023-05-31T04:23:29;68244.28;;;9.54;100.00
36354;BME280;22383;51.114;13.666;2023-05-31T04:25:59;68241.44;;;9.52;100.00
36354;BME280;22383;51.114;13.666;2023-05-31T04:28:35;68268.25;;;9.71;100.00
36354;BME280;22383;51.114;13.666;2023-05-31T04:31:03;68285.63;;;9.92;100.00
36354;BME280;22383;51.114;13.666;2023-05-31T04:33:31;68348.19;;;10.51;100.00
36354;BME280;22383;51.114;13.666;2023-05-31T04:36:02;68473.16;;;11.59;100.00
36354;BME280;22383;51.114;13.666;2023-05-31T04:38:32;68598.81;;;12.75;100.00
36354;BME280;22383;51.114;13.666;2023-05-31T04:40:59;68748.25;;;14.10;100.00
36354;BME280;22383;51.114;13.666;2023-05-31T04:43:28;68913.22;;;15.59;100.00
36354;BME280;22383;51.114;13.666;2023-05-31T04:45:59;69041.91;;;16.75;100.00
36354;BME280;22383;51.114;13.666;2023-05-31T04:48:29;69172.28;;;17.90;99.87
36354;BME280;22383;51.114;13.666;2023-05-31T04:50:58;69269.00;;;18.82;91.03
36354;BME280;22383;51.114;13.666;2023-05-31T04:53:27;69392.28;;;19.93;82.23
36354;BME280;22383;51.114;13.666;2023-05-31T04:55:54;69483.91;;;20.71;74.81
36354;BME280;22383;51.114;13.666;2023-05-31T04:58:22;69333.88;;;19.38;76.19
36354;BME280;22383;51.114;13.666;2023-05-31T05:00:50;69455.50;;;20.48;74.53
36354;BME280;22383;51.114;13.666;2023-05-31T05:03:23;69360.13;;;19.62;74.24
36354;BME280;22383;51.114;13.666;2023-05-31T05:05:50;69249.25;;;18.60;78.13
36354;BME280;22383;51.114;13.666;2023-05-31T05:08:18;69268.06;;;18.77;78.10
36354;BME280;22383;51.114;13.666;2023-05-31T05:10:47;69306.66;;;19.16;75.58
36354;BME280;22383;51.114;13.666;2023-05-31T05:13:15;69387.56;;;19.87;73.80
36354;BME280;22383;51.114;13.666;2023-05-31T05:15:46;69269.03;;;18.75;75.82
36354;BME280;22383;51.114;13.666;2023-05-31T05:18:14;69179.69;;;17.97;79.29
36354;BME280;22383;51.114;13.666;2023-05-31T05:20:42;69136.91;;;17.58;81.98
36354;BME280;22383;51.114;13.666;2023-05-31T05:23:12;69109.38;;;17.31;85.46
36354;BME280;22383;51.114;13.666;2023-05-31T05:25:40;69126.25;;;17.51;86.90
36354;BME280;22383;51.114;13.666;2023-05-31T05:28:07;69114.88;;;17.41;87.29
36354;BME280;22383;51.114;13.666;2023-05-31T05:30:34;69098.72;;;17.24;87.83
36354;BME280;22383;51.114;13.666;2023-05-31T05:33:02;69149.63;;;17.72;85.49
36354;BME280;22383;51.114;13.666;2023-05-31T05:35:33;69260.25;;;18.72;85.11
36354;BME280;22383;51.114;13.666;2023-05-31T05:38:00;69375.16;;;19.78;77.84
36354;BME280;22383;51.114;13.666;2023-05-31T05:40:28;69582.03;;;21.57;71.02
36354;BME280;22383;51.114;13.666;2023-05-31T05:42:55;69724.34;;;22.92;68.10
36354;BME280;22383;51.114;13.666;2023-05-31T05:45:24;69859.41;;;24.13;61.27
36354;BME280;22383;51.114;13.666;2023-05-31T05:47:53;69862.53;;;24.11;59.48
36354;BME280;22383;51.114;13.666;2023-05-31T05:50:23;69837.09;;;23.93;58.59
36354;BME280;22383;51.114;13.666;2023-05-31T05:52:51;69818.75;;;23.76;56.98
36354;BME280;22383;51.114;13.666;2023-05-31T05:55:22;69829.50;;;23.84;55.70
36354;BME280;22383;51.114;13.666;2023-05-31T05:57:50;69880.00;;;24.31;56.41
36354;BME280;22383;51.114;13.666;2023-05-31T06:00:37;69897.19;;;24.47;53.13
36354;BME280;22383;51.114;13.666;2023-05-31T06:03:04;69841.34;;;23.92;55.82
36354;BME280;22383;51.114;13.666;2023-05-31T06:05:32;69817.59;;;23.75;55.22
36354;BME280;22383;51.114;13.666;2023-05-31T06:08:00;69724.00;;;22.87;56.02
36354;BME280;22383;51.114;13.666;2023-05-31T06:10:28;69635.53;;;22.09;57.82
36354;BME280;22383;51.114;13.666;2023-05-31T06:12:56;69540.22;;;21.26;59.76
36354;BME280;22383;51.114;13.666;2023-05-31T06:15:24;69549.34;;;21.34;60.86
36354;BME280;22383;51.114;13.666;2023-05-31T06:17:51;69534.50;;;21.21;60.54
36354;BME280;22383;51.114;13.666;2023-05-31T06:20:21;69467.31;;;20.56;63.04
36354;BME280;22383;51.114;13.666;2023-05-31T06:22:49;69384.69;;;19.84;67.44
36354;BME280;22383;51.114;13.666;2023-05-31T06:25:22;69385.84;;;19.85;66.81
36354;BME280;22383;51.114;13.666;2023-05-31T06:27:50;69418.75;;;20.12;64.02
36354;BME280;22383;51.114;13.666;2023-05-31T06:30:18;69412.69;;;20.09;64.45
36354;BME280;22383;51.114;13.666;2023-05-31T06:32:46;69468.06;;;20.59;63.55
36354;BME280;22383;51.114;13.666;2023-05-31T06:35:21;69497.03;;;20.83;63.76
36354;BME280;22383;51.114;13.666;2023-05-31T06:37:50;69454.56;;;20.42;65.02
36354;BME280;22383;51.114;13.666;2023-05-31T06:40:18;69445.19;;;20.38;65.74
36354;BME280;22383;51.114;13.666;2023-05-31T06:42:46;69527.81;;;21.18;63.93
36354;BME280;22383;51.114;13.666;2023-05-31T06:45:52;69542.75;;;21.24;64.39
36354;BME280;22383;51.114;13.666;2023-05-31T06:48:20;69591.34;;;21.67;63.39
36354;BME280;22383;51.114;13.666;2023-05-31T06:50:53;69630.94;;;22.05;60.98
36354;BME280;22383;51.114;13.666;2023-05-31T06:53:39;69642.53;;;22.18;59.27
36354;BME280;22383;51.114;13.666;2023-05-31T06:56:21;69642.69;;;22.21;57.98
36354;BME280;22383;51.114;13.666;2023-05-31T06:58:49;69635.66;;;22.12;59.53
36354;BME280;22383;51.114;13.666;2023-05-31T07:01:18;69656.50;;;22.26;59.97
36354;BME280;22383;51.114;13.666;2023-05-31T07:03:46;69676.53;;;22.44;60.51
36354;BME280;22383;51.114;13.666;2023-05-31T07:06:13;69725.16;;;22.88;59.52
36354;BME280;22383;51.114;13.666;2023-05-31T07:08:41;69796.28;;;23.54;54.76
36354;BME280;22383;51.114;13.666;2023-05-31T07:11:14;69662.41;;;22.34;55.64
36354;BME280;22383;51.114;13.666;2023-05-31T07:13:42;69691.72;;;22.62;55.08
36354;BME280;22383;51.114;13.666;2023-05-31T07:16:09;69691.16;;;22.62;56.89
36354;BME280;22383;51.114;13.666;2023-05-31T07:18:38;69723.28;;;22.83;54.15
36354;BME280;22383;51.114;13.666;2023-05-31T07:21:05;69695.91;;;22.69;56.99
36354;BME280;22383;51.114;13.666;2023-05-31T07:23:36;69633.66;;;22.05;56.78
36354;BME280;22383;51.114;13.666;2023-05-31T07:26:03;69624.41;;;22.04;55.03
36354;BME280;22383;51.114;13.666;2023-05-31T07:28:30;69664.84;;;22.38;56.74
36354;BME280;22383;51.114;13.666;2023-05-31T07:30:58;69769.56;;;23.32;55.56
36354;BME280;22383;51.114;13.666;2023-05-31T07:33:26;69806.56;;;23.63;52.60
36354;BME280;22383;51.114;13.666;2023-05-31T07:35:59;69898.34;;;24.48;51.19
36354;BME280;22383;51.114;13.666;2023-05-31T07:38:29;69913.66;;;24.59;52.18
36354;BME280;22383;51.114;13.666;2023-05-31T07:40:57;69798.00;;;23.55;55.32
36354;BME280;22383;51.114;13.666;2023-05-31T07:43:25;69845.69;;;24.01;52.74
36354;BME280;22383;51.114;13.666;2023-05-31T07:45:53;69855.84;;;24.07;51.53
36354;BME280;22383;51.114;13.666;2023-05-31T07:48:22;69827.03;;;23.79;51.39
36354;BME280;22383;51.114;13.666;2023-05-31T07:50:50;69834.38;;;23.93;50.73
36354;BME280;22383;51.114;13.666;2023-05-31T07:53:18;69800.88;;;23.58;51.08
36354;BME280;22383;51.114;13.666;2023-05-31T07:55:45;69733.47;;;23.00;55.20
36354;BME280;22383;51.114;13.666;2023-05-31T07:58:13;69652.09;;;22.24;53.15
36354;BME280;22383;51.114;13.666;2023-05-31T08:00:40;69677.69;;;22.45;53.69
36354;BME280;22383;51.114;13.666;2023-05-31T08:03:08;69645.81;;;22.19;54.17
36354;BME280;22383;51.114;13.666;2023-05-31T08:05:35;69569.22;;;21.50;54.92
36354;BME280;22383;51.114;13.666;2023-05-31T08:08:03;69638.22;;;22.09;54.81
36354;BME280;22383;51.114;13.666;2023-05-31T08:10:33;69651.53;;;22.24;57.07
36354;BME280;22383;51.114;13.666;2023-05-31T08:13:00;69672.53;;;22.40;54.61
36354;BME280;22383;51.114;13.666;2023-05-31T08:15:28;69689.28;;;22.58;55.95
36354;BME280;22383;51.114;13.666;2023-05-31T08:17:55;69745.78;;;23.06;56.60
36354;BME280;22383;51.114;13.666;2023-05-31T08:20:23;69746.91;;;23.07;55.87
36354;BME280;22383;51.114;13.666;2023-05-31T08:22:51;69701.69;;;22.66;52.21
36354;BME280;22383;51.114;13.666;2023-05-31T08:25:20;69705.88;;;22.73;53.99
36354;BME280;22383;51.114;13.666;2023-05-31T08:27:48;69691.72;;;22.62;53.64
36354;BME280;22383;51.114;13.666;2023-05-31T08:30:15;69711.19;;;22.80;54.30
36354;BME280;22383;51.114;13.666;2023-05-31T08:32:43;69742.50;;;23.06;53.46
36354;BME280;22383;51.114;13.666;2023-05-31T08:35:10;69740.38;;;23.06;53.41
36354;BME280;22383;51.114;13.666;2023-05-31T08:37:38;69791.13;;;23.49;53.00
36354;BME280;22383;51.114;13.666;2023-05-31T08:40:07;69804.47;;;23.64;53.65
36354;BME280;22383;51.114;13.666;2023-05-31T08:45:17;69789.56;;;23.50;51.22
36354;BME280;22383;51.114;13.666;2023-05-31T08:47:51;69831.94;;;23.88;50.25
36354;BME280;22383;51.114;13.666;2023-05-31T08:50:22;69791.84;;;23.52;50.75
36354;BME280;22383;51.114;13.666;2023-05-31T08:52:51;69781.97;;;23.41;51.68
36354;BME280;22383;51.114;13.666;2023-05-31T08:55:21;69793.44;;;23.51;52.55
36354;BME280;22383;51.114;13.666;2023-05-31T08:57:50;69797.44;;;23.55;51.34
36354;BME280;22383;51.114;13.666;2023-05-31T09:00:19;69830.47;;;23.82;52.13
36354;BME280;22383;51.114;13.666;2023-05-31T09:02:47;69818.75;;;23.76;49.61
36354;BME280;22383;51.114;13.666;2023-05-31T09:05:14;69796.69;;;23.52;49.08
36354;BME280;22383;51.114;13.666;2023-05-31T09:07:42;69740.19;;;23.03;52.21
36354;BME280;22383;51.114;13.666;2023-05-31T09:10:09;69781.81;;;23.38;51.03
36354;BME280;22383;51.114;13.666;2023-05-31T09:12:38;69816.47;;;23.74;50.37
36354;BME280;22383;51.114;13.666;2023-05-31T09:15:06;69809.44;;;23.66;49.35
36354;BME280;22383;51.114;13.666;2023-05-31T09:17:34;69831.06;;;23.83;49.87
36354;BME280;22383;51.114;13.666;2023-05-31T09:20:05;69800.44;;;23.60;49.99
36354;BME280;22383;51.114;13.666;2023-05-31T09:22:33;69791.13;;;23.49;53.00
36354;BME280;22383;51.114;13.666;2023-05-31T09:25:03;69796.44;;;23.56;53.27
36354;BME280;22383;51.114;13.666;2023-05-31T09:27:38;69859.84;;;24.11;50.40
36354;BME280;22383;51.114;13.666;2023-05-31T09:30:11;69788.84;;;23.47;49.78
36354;BME280;22383;51.114;13.666;2023-05-31T09:32:39;69878.72;;;24.28;50.72
36354;BME280;22383;51.114;13.666;2023-05-31T09:35:11;69935.59;;;24.81;49.12
36354;BME280;22383;51.114;13.666;2023-05-31T09:37:44;69946.88;;;24.89;50.11
36354;BME280;22383;51.114;13.666;2023-05-31T09:40:13;69983.53;;;25.22;46.99
36354;BME280;22383;51.114;13.666;2023-05-31T09:42:50;70009.50;;;25.47;47.86
36354;BME280;22383;51.114;13.666;2023-05-31T09:45:18;69942.72;;;24.83;48.66
36354;BME280;22383;51.114;13.666;2023-05-31T09:47:48;69926.41;;;24.73;49.45
36354;BME280;22383;51.114;13.666;2023-05-31T09:50:21;69990.59;;;25.31;47.99
36354;BME280;22383;51.114;13.666;2023-05-31T09:52:55;69998.47;;;25.35;46.70
36354;BME280;22383;51.114;13.666;2023-05-31T09:55:23;69978.13;;;25.22;46.71
36354;BME280;22383;51.114;13.666;2023-05-31T09:57:52;69984.69;;;25.23;46.88
36354;BME280;22383;51.114;13.666;2023-05-31T10:00:20;69997.47;;;25.37;47.50
36354;BME280;22383;51.114;13.666;2023-05-31T10:02:49;69977.25;;;25.16;45.62
36354;BME280;22383;51.114;13.666;2023-05-31T10:05:20;69955.06;;;24.99;45.83
36354;BME280;22383;51.114;13.666;2023-05-31T10:07:51;69998.03;;;25.37;43.61
36354;BME280;22383;51.114;13.666;2023-05-31T10:10:25;70024.81;;;25.59;45.51
36354;BME280;22383;51.114;13.666;2023-05-31T10:13:01;69995.16;;;25.35;47.57
36354;BME280;22383;51.114;13.666;2023-05-31T10:15:31;70020.66;;;25.53;45.92
36354;BME280;22383;51.114;13.666;2023-05-31T10:18:15;69991.59;;;25.29;45.07
36354;BME280;22383;51.114;13.666;2023-05-31T10:20:51;69988.72;;;25.26;43.69
36354;BME280;22383;51.114;13.666;2023-05-31T10:23:24;69968.06;;;25.08;44.52
36354;BME280;22383;51.114;13.666;2023-05-31T10:28:37;70043.72;;;25.76;45.20
36354;BME280;22383;51.114;13.666;2023-05-31T10:31:07;70055.91;;;25.89;42.82
36354;BME280;22383;51.114;13.666;2023-05-31T10:33:40;70043.31;;;25.78;44.38
36354;BME280;22383;51.114;13.666;2023-05-31T10:36:11;70031.53;;;25.62;46.39
36354;BME280;22383;51.114;13.666;2023-05-31T10:38:45;70025.97;;;25.60;44.47
36354;BME280;22383;51.114;13.666;2023-05-31T10:41:18;70029.81;;;25.61;42.88
36354;BME280;22383;51.114;13.666;2023-05-31T10:44:07;70038.16;;;25.73;42.44
36354;BME280;22383;51.114;13.666;2023-05-31T10:46:38;70049.19;;;25.85;45.09
36354;BME280;22383;51.114;13.666;2023-05-31T10:49:09;70096.63;;;26.26;44.97
36354;BME280;22383;51.114;13.666;2023-05-31T10:51:43;70072.00;;;26.03;41.12
36354;BME280;22383;51.114;13.666;2023-05-31T10:54:33;70104.81;;;26.35;43.81
36354;BME280;22383;51.114;13.666;2023-05-31T10:57:03;70048.47;;;25.82;45.78
36354;BME280;22383;51.114;13.666;2023-05-31T10:59:42;70089.03;;;26.16;42.75
36354;BME280;22383;51.114;13.666;2023-05-31T11:02:11;70108.66;;;26.36;45.06
36354;BME280;22383;51.114;13.666;2023-05-31T11:04:39;70044.03;;;25.81;41.63
36354;BME280;22383;51.114;13.666;2023-05-31T11:09:54;70032.09;;;25.63;42.86
36354;BME280;22383;51.114;13.666;2023-05-31T11:12:37;70021.97;;;25.56;42.43
36354;BME280;22383;51.114;13.666;2023-05-31T11:15:12;70087.59;;;26.20;45.14
36354;BME280;22383;51.114;13.666;2023-05-31T11:17:54;70079.69;;;26.06;44.93
36354;BME280;22383;51.114;13.666;2023-05-31T11:20:25;70007.06;;;25.43;45.08
36354;BME280;22383;51.114;13.666;2023-05-31T11:23:26;70062.06;;;25.92;40.81
36354;BME280;22383;51.114;13.666;2023-05-31T11:26:09;70086.31;;;26.16;42.72
36354;BME280;22383;51.114;13.666;2023-05-31T11:28:54;70016.22;;;25.51;43.64
36354;BME280;22383;51.114;13.666;2023-05-31T11:36:56;70054.78;;;25.88;42.97
36354;BME280;22383;51.114;13.666;2023-05-31T11:39:24;70031.84;;;25.67;42.71
36354;BME280;22383;51.114;13.666;2023-05-31T11:41:54;69978.22;;;25.15;42.49
36354;BME280;22383;51.114;13.666;2023-05-31T11:44:29;70046.59;;;25.78;40.67
36354;BME280;22383;51.114;13.666;2023-05-31T11:47:05;70060.34;;;25.91;41.92
36354;BME280;22383;51.114;13.666;2023-05-31T11:49:33;70059.22;;;25.90;41.31
36354;BME280;22383;51.114;13.666;2023-05-31T11:52:03;70058.22;;;25.91;41.19
36354;BME280;22383;51.114;13.666;2023-05-31T11:54:33;70034.00;;;25.67;40.92
36354;BME280;22383;51.114;13.666;2023-05-31T11:57:03;70065.34;;;25.93;43.23
36354;BME280;22383;51.114;13.666;2023-05-31T11:59:35;70055.59;;;26.11;44.66
36354;BME280;22383;51.114;13.666;2023-05-31T12:02:07;70068.63;;;25.93;43.26
36354;BME280;22383;51.114;13.666;2023-05-31T12:04:36;70029.56;;;25.65;43.27
36354;BME280;22383;51.114;13.666;2023-05-31T12:07:08;70060.94;;;25.91;44.01
36354;BME280;22383;51.114;13.666;2023-05-31T12:09:36;70032.00;;;25.70;42.42
36354;BME280;22383;51.114;13.666;2023-05-31T12:12:04;70040.72;;;25.71;44.18
36354;BME280;22383;51.114;13.666;2023-05-31T12:14:35;70034.41;;;25.65;42.18
36354;BME280;22383;51.114;13.666;2023-05-31T12:17:03;70016.38;;;25.54;42.03
36354;BME280;22383;51.114;13.666;2023-05-31T12:19:32;69973.25;;;25.13;42.76
36354;BME280;22383;51.114;13.666;2023-05-31T12:22:01;70000.16;;;25.37;43.63
36354;BME280;22383;51.114;13.666;2023-05-31T12:24:29;70016.94;;;25.54;43.51
36354;BME280;22383;51.114;13.666;2023-05-31T12:26:57;70076.16;;;26.10;44.72
36354;BME280;22383;51.114;13.666;2023-05-31T12:29:25;70144.66;;;26.66;41.72
36354;BME280;22383;51.114;13.666;2023-05-31T12:32:03;70200.41;;;27.19;43.61
36354;BME280;22383;51.114;13.666;2023-05-31T12:34:35;70206.03;;;27.21;40.77
36354;BME280;22383;51.114;13.666;2023-05-31T12:37:08;70212.47;;;27.29;41.82
36354;BME280;22383;51.114;13.666;2023-05-31T12:39:36;70198.56;;;27.14;41.54
36354;BME280;22383;51.114;13.666;2023-05-31T12:42:05;70174.47;;;26.93;39.31
36354;BME280;22383;51.114;13.666;2023-05-31T12:44:34;70117.09;;;26.41;41.57
36354;BME280;22383;51.114;13.666;2023-05-31T12:47:06;70084.84;;;26.10;41.16
36354;BME280;22383;51.114;13.666;2023-05-31T12:49:35;70050.03;;;25.81;42.26
36354;BME280;22383;51.114;13.666;2023-05-31T12:52:04;70061.50;;;25.92;42.70
36354;BME280;22383;51.114;13.666;2023-05-31T12:54:36;70049.03;;;25.83;42.21
36354;BME280;22383;51.114;13.666;2023-05-31T12:57:08;70052.88;;;25.84;42.06
36354;BME280;22383;51.114;13.666;2023-05-31T12:59:37;70087.44;;;26.17;41.75
36354;BME280;22383;51.114;13.666;2023-05-31T13:02:05;70131.59;;;26.57;40.57
36354;BME280;22383;51.114;13.666;2023-05-31T13:04:34;70103.50;;;26.32;39.35
36354;BME280;22383;51.114;13.666;2023-05-31T13:07:04;70082.88;;;26.13;44.67
36354;BME280;22383;51.114;13.666;2023-05-31T13:09:32;70106.38;;;26.34;44.08
36354;BME280;22383;51.114;13.666;2023-05-31T13:12:00;70097.78;;;26.27;41.50
36354;BME280;22383;51.114;13.666;2023-05-31T13:14:28;70076.00;;;26.07;42.71
36354;BME280;22383;51.114;13.666;2023-05-31T13:16:55;70069.28;;;26.03;42.78
36354;BME280;22383;51.114;13.666;2023-05-31T13:19:23;70091.88;;;26.19;41.12
36354;BME280;22383;51.114;13.666;2023-05-31T13:21:50;70040.13;;;25.70;44.38
36354;BME280;22383;51.114;13.666;2023-05-31T13:24:17;70099.34;;;26.26;44.10